sensor_id;sensor_type;location;lat;lon;timestamp;pressure;altitude;pressure_sealevel;temperature;humidity
60258;BME280;46115;44.484;11.314;2022-08-21T00:03:52;99908.97;;;21.98;70.43
60258;BME280;46115;44.484;11.314;2022-08-21T00:07:54;99908.66;;;22.01;70.38
60258;BME280;46115;44.484;11.314;2022-08-21T00:11:57;99908.44;;;21.86;70.70
60258;BME280;46115;44.484;11.314;2022-08-21T00:16:02;99915.19;;;21.98;70.33
60258;BME280;46115;44.484;11.314;2022-08-21T00:20:07;99914.84;;;21.93;70.52
60258;BME280;46115;44.484;11.314;2022-08-21T00:24:11;99908.09;;;21.89;70.48
60258;BME280;46115;44.484;11.314;2022-08-21T00:28:14;99909.63;;;21.92;70.34
60258;BME280;46115;44.484;11.314;2022-08-21T00:32:21;99910.41;;;21.84;70.38
60258;BME280;46115;44.484;11.314;2022-08-21T00:36:23;99911.16;;;21.94;70.13
60258;BME280;46115;44.484;11.314;2022-08-21T00:40:29;99912.09;;;21.85;70.09
60258;BME280;46115;44.484;11.314;2022-08-21T00:44:32;99917.81;;;21.82;70.21
60258;BME280;46115;44.484;11.314;2022-08-21T00:48:36;99914.34;;;21.98;69.60
60258;BME280;46115;44.484;11.314;2022-08-21T00:52:39;99908.47;;;21.94;69.62
60258;BME280;46115;44.484;11.314;2022-08-21T00:56:42;99910.38;;;21.76;70.34
60258;BME280;46115;44.484;11.314;2022-08-21T01:00:47;99907.03;;;21.82;70.02
60258;BME280;46115;44.484;11.314;2022-08-21T01:04:51;99897.59;;;21.78;70.21
60258;BME280;46115;44.484;11.314;2022-08-21T01:08:54;99908.72;;;21.83;70.08
60258;BME280;46115;44.484;11.314;2022-08-21T01:12:57;99906.84;;;21.75;70.12
60258;BME280;46115;44.484;11.314;2022-08-21T01:17:01;99902.94;;;21.70;70.46
60258;BME280;46115;44.484;11.314;2022-08-21T01:21:08;99902.78;;;21.71;70.17
60258;BME280;46115;44.484;11.314;2022-08-21T01:25:13;99903.22;;;21.59;70.58
60258;BME280;46115;44.484;11.314;2022-08-21T01:29:29;99904.41;;;21.56;70.71
60258;BME280;46115;44.484;11.314;2022-08-21T01:33:32;99903.31;;;21.49;71.02
60258;BME280;46115;44.484;11.314;2022-08-21T01:37:36;99902.88;;;21.54;70.59
60258;BME280;46115;44.484;11.314;2022-08-21T01:41:39;99895.56;;;21.46;70.90
60258;BME280;46115;44.484;11.314;2022-08-21T01:45:41;99899.44;;;21.43;70.80
60258;BME280;46115;44.484;11.314;2022-08-21T01:49:44;99895.69;;;21.36;71.53
60258;BME280;46115;44.484;11.314;2022-08-21T01:53:49;99892.59;;;21.23;72.27
60258;BME280;46115;44.484;11.314;2022-08-21T01:57:51;99897.41;;;21.20;72.55
60258;BME280;46115;44.484;11.314;2022-08-21T02:01:53;99888.88;;;21.06;72.86
60258;BME280;46115;44.484;11.314;2022-08-21T02:05:56;99895.56;;;21.02;72.71
60258;BME280;46115;44.484;11.314;2022-08-21T02:10:00;99885.56;;;21.12;71.89
60258;BME280;46115;44.484;11.314;2022-08-21T02:14:02;99883.19;;;21.09;72.00
60258;BME280;46115;44.484;11.314;2022-08-21T02:18:05;99860.38;;;20.88;72.43
60258;BME280;46115;44.484;11.314;2022-08-21T02:22:08;99881.97;;;21.04;72.21
60258;BME280;46115;44.484;11.314;2022-08-21T02:26:12;99878.75;;;21.18;71.32
60258;BME280;46115;44.484;11.314;2022-08-21T02:30:18;99884.88;;;21.28;70.53
60258;BME280;46115;44.484;11.314;2022-08-21T02:34:23;99883.56;;;21.14;71.38
60258;BME280;46115;44.484;11.314;2022-08-21T02:38:26;99868.28;;;20.89;72.01
60258;BME280;46115;44.484;11.314;2022-08-21T02:42:30;99887.50;;;21.20;71.35
60258;BME280;46115;44.484;11.314;2022-08-21T02:46:33;99878.44;;;21.03;71.82
60258;BME280;46115;44.484;11.314;2022-08-21T02:50:37;99888.34;;;21.03;71.58
60258;BME280;46115;44.484;11.314;2022-08-21T02:54:41;99884.19;;;21.08;71.33
60258;BME280;46115;44.484;11.314;2022-08-21T02:58:46;99887.84;;;20.99;71.61
60258;BME280;46115;44.484;11.314;2022-08-21T03:02:50;99878.72;;;20.92;72.15
60258;BME280;46115;44.484;11.314;2022-08-21T03:06:54;99889.56;;;20.82;72.22
60258;BME280;46115;44.484;11.314;2022-08-21T03:10:56;99882.09;;;20.76;72.84
60258;BME280;46115;44.484;11.314;2022-08-21T03:15:04;99879.56;;;20.75;72.84
60258;BME280;46115;44.484;11.314;2022-08-21T03:19:07;99884.94;;;20.57;74.07
60258;BME280;46115;44.484;11.314;2022-08-21T03:23:10;99885.94;;;20.56;73.90
60258;BME280;46115;44.484;11.314;2022-08-21T03:27:13;99882.34;;;20.65;73.04
60258;BME280;46115;44.484;11.314;2022-08-21T03:31:17;99876.34;;;20.71;72.58
60258;BME280;46115;44.484;11.314;2022-08-21T03:35:20;99884.00;;;20.66;73.02
60258;BME280;46115;44.484;11.314;2022-08-21T03:39:22;99884.72;;;20.68;73.10
60258;BME280;46115;44.484;11.314;2022-08-21T03:43:25;99885.53;;;20.69;72.69
60258;BME280;46115;44.484;11.314;2022-08-21T03:47:29;99897.81;;;20.71;72.08
60258;BME280;46115;44.484;11.314;2022-08-21T03:55:34;99877.41;;;20.43;73.54
60258;BME280;46115;44.484;11.314;2022-08-21T03:59:37;99875.41;;;20.45;73.81
60258;BME280;46115;44.484;11.314;2022-08-21T04:03:42;99863.66;;;20.46;73.34
60258;BME280;46115;44.484;11.314;2022-08-21T04:07:44;99883.19;;;20.48;73.46
60258;BME280;46115;44.484;11.314;2022-08-21T04:11:47;99884.13;;;20.29;74.65
60258;BME280;46115;44.484;11.314;2022-08-21T04:15:49;99878.13;;;20.17;75.32
60258;BME280;46115;44.484;11.314;2022-08-21T04:19:53;99883.88;;;20.22;75.20
60258;BME280;46115;44.484;11.314;2022-08-21T04:23:56;99882.81;;;20.15;75.61
60258;BME280;46115;44.484;11.314;2022-08-21T04:27:59;99882.53;;;20.09;75.89
60258;BME280;46115;44.484;11.314;2022-08-21T04:32:03;99881.84;;;20.07;76.15
60258;BME280;46115;44.484;11.314;2022-08-21T04:36:07;99884.81;;;20.04;76.25
60258;BME280;46115;44.484;11.314;2022-08-21T04:40:11;99892.09;;;19.93;77.00
60258;BME280;46115;44.484;11.314;2022-08-21T04:44:14;99894.06;;;19.91;77.02
60258;BME280;46115;44.484;11.314;2022-08-21T04:48:18;99872.69;;;19.72;77.03
60258;BME280;46115;44.484;11.314;2022-08-21T04:52:23;99904.22;;;19.98;76.76
60258;BME280;46115;44.484;11.314;2022-08-21T04:56:30;99907.44;;;20.01;76.90
60258;BME280;46115;44.484;11.314;2022-08-21T05:00:33;99906.09;;;20.15;75.75
60258;BME280;46115;44.484;11.314;2022-08-21T05:04:40;99916.66;;;20.44;74.46
60258;BME280;46115;44.484;11.314;2022-08-21T05:08:47;99913.78;;;20.73;73.08
60258;BME280;46115;44.484;11.314;2022-08-21T05:12:50;99914.78;;;20.72;72.97
60258;BME280;46115;44.484;11.314;2022-08-21T05:16:53;99911.25;;;20.89;72.30
60258;BME280;46115;44.484;11.314;2022-08-21T05:20:55;99917.53;;;20.98;71.57
60258;BME280;46115;44.484;11.314;2022-08-21T05:24:59;99920.50;;;21.12;71.18
60258;BME280;46115;44.484;11.314;2022-08-21T05:29:02;99914.16;;;21.31;70.92
60258;BME280;46115;44.484;11.314;2022-08-21T05:33:06;99915.63;;;21.26;71.00
60258;BME280;46115;44.484;11.314;2022-08-21T05:37:10;99912.66;;;21.37;70.63
60258;BME280;46115;44.484;11.314;2022-08-21T05:41:14;99908.16;;;21.71;69.21
60258;BME280;46115;44.484;11.314;2022-08-21T05:45:17;99909.81;;;21.98;68.72
60258;BME280;46115;44.484;11.314;2022-08-21T05:49:19;99916.88;;;22.33;67.76
60258;BME280;46115;44.484;11.314;2022-08-21T05:53:23;99928.72;;;22.57;65.70
60258;BME280;46115;44.484;11.314;2022-08-21T05:57:27;99925.72;;;22.68;65.42
60258;BME280;46115;44.484;11.314;2022-08-21T06:01:30;99929.31;;;22.93;64.78
60258;BME280;46115;44.484;11.314;2022-08-21T06:05:32;99928.47;;;23.00;64.00
60258;BME280;46115;44.484;11.314;2022-08-21T06:09:35;99929.13;;;23.11;63.73
60258;BME280;46115;44.484;11.314;2022-08-21T06:13:40;99928.47;;;23.25;62.78
60258;BME280;46115;44.484;11.314;2022-08-21T06:17:43;99921.38;;;23.64;62.22
60258;BME280;46115;44.484;11.314;2022-08-21T06:21:45;99924.16;;;23.95;60.91
60258;BME280;46115;44.484;11.314;2022-08-21T06:25:47;99923.41;;;24.49;58.56
60258;BME280;46115;44.484;11.314;2022-08-21T06:29:51;99931.44;;;25.48;55.73
60258;BME280;46115;44.484;11.314;2022-08-21T06:33:54;99928.81;;;25.40;55.07
60258;BME280;46115;44.484;11.314;2022-08-21T06:37:57;99933.53;;;26.20;52.77
60258;BME280;46115;44.484;11.314;2022-08-21T06:41:59;99938.25;;;26.62;51.51
60258;BME280;46115;44.484;11.314;2022-08-21T06:46:04;99933.06;;;27.25;50.00
60258;BME280;46115;44.484;11.314;2022-08-21T06:50:09;99932.13;;;29.10;45.68
60258;BME280;46115;44.484;11.314;2022-08-21T06:54:11;99926.38;;;28.11;47.23
60258;BME280;46115;44.484;11.314;2022-08-21T06:58:14;99896.97;;;27.87;46.51
60258;BME280;46115;44.484;11.314;2022-08-21T07:02:18;99935.09;;;31.16;41.02
60258;BME280;46115;44.484;11.314;2022-08-21T07:06:21;99952.09;;;32.47;36.70
60258;BME280;46115;44.484;11.314;2022-08-21T07:10:23;99947.78;;;34.35;34.16
60258;BME280;46115;44.484;11.314;2022-08-21T07:14:26;99963.03;;;34.71;32.15
60258;BME280;46115;44.484;11.314;2022-08-21T07:18:30;99971.78;;;38.07;28.18
60258;BME280;46115;44.484;11.314;2022-08-21T07:22:32;99969.13;;;38.95;26.40
60258;BME280;46115;44.484;11.314;2022-08-21T07:26:35;99974.47;;;41.07;23.19
60258;BME280;46115;44.484;11.314;2022-08-21T07:30:38;99956.09;;;35.76;30.12
60258;BME280;46115;44.484;11.314;2022-08-21T07:34:42;99962.00;;;39.35;25.19
60258;BME280;46115;44.484;11.314;2022-08-21T07:38:45;99966.53;;;40.31;22.53
60258;BME280;46115;44.484;11.314;2022-08-21T07:42:49;99975.66;;;42.65;20.62
60258;BME280;46115;44.484;11.314;2022-08-21T07:46:52;99981.59;;;43.52;19.36
60258;BME280;46115;44.484;11.314;2022-08-21T07:50:56;99987.91;;;44.32;18.83
60258;BME280;46115;44.484;11.314;2022-08-21T07:54:59;99989.56;;;44.19;19.26
60258;BME280;46115;44.484;11.314;2022-08-21T07:59:02;99986.28;;;45.30;18.08
60258;BME280;46115;44.484;11.314;2022-08-21T08:03:04;99986.94;;;45.58;17.88
60258;BME280;46115;44.484;11.314;2022-08-21T08:07:08;99982.63;;;45.07;18.45
60258;BME280;46115;44.484;11.314;2022-08-21T08:11:11;99978.78;;;43.85;19.87
60258;BME280;46115;44.484;11.314;2022-08-21T08:15:19;99973.78;;;44.42;19.04
60258;BME280;46115;44.484;11.314;2022-08-21T08:19:22;99976.44;;;46.17;17.95
60258;BME280;46115;44.484;11.314;2022-08-21T08:23:25;99973.63;;;45.55;17.91
60258;BME280;46115;44.484;11.314;2022-08-21T08:27:28;99970.88;;;46.26;17.36
60258;BME280;46115;44.484;11.314;2022-08-21T08:31:31;99968.25;;;47.94;16.01
60258;BME280;46115;44.484;11.314;2022-08-21T08:35:33;99969.44;;;49.92;14.53
60258;BME280;46115;44.484;11.314;2022-08-21T08:39:37;99947.16;;;46.98;16.19
60258;BME280;46115;44.484;11.314;2022-08-21T08:43:42;99967.38;;;49.56;14.13
60258;BME280;46115;44.484;11.314;2022-08-21T08:47:48;99949.09;;;48.34;14.34
60258;BME280;46115;44.484;11.314;2022-08-21T08:51:55;99931.84;;;44.97;16.65
60258;BME280;46115;44.484;11.314;2022-08-21T08:56:04;99957.84;;;49.37;13.10
60258;BME280;46115;44.484;11.314;2022-08-21T09:00:09;99944.09;;;48.10;14.17
60258;BME280;46115;44.484;11.314;2022-08-21T09:04:13;99945.50;;;47.31;14.17
60258;BME280;46115;44.484;11.314;2022-08-21T09:08:31;99939.59;;;47.88;14.47
60258;BME280;46115;44.484;11.314;2022-08-21T09:12:46;99945.38;;;49.58;13.31
60258;BME280;46115;44.484;11.314;2022-08-21T09:16:55;99946.41;;;50.11;13.12
60258;BME280;46115;44.484;11.314;2022-08-21T09:21:06;99943.59;;;50.88;12.14
60258;BME280;46115;44.484;11.314;2022-08-21T09:25:15;99923.22;;;47.52;14.67
60258;BME280;46115;44.484;11.314;2022-08-21T09:29:24;99890.06;;;45.90;15.59
60258;BME280;46115;44.484;11.314;2022-08-21T09:33:30;99907.88;;;42.47;19.36
60258;BME280;46115;44.484;11.314;2022-08-21T09:37:35;99887.63;;;38.05;24.68
60258;BME280;46115;44.484;11.314;2022-08-21T09:41:55;99874.63;;;37.48;25.60
60258;BME280;46115;44.484;11.314;2022-08-21T09:46:05;99877.09;;;38.75;24.52
60258;BME280;46115;44.484;11.314;2022-08-21T09:50:11;99865.66;;;38.25;24.90
60258;BME280;46115;44.484;11.314;2022-08-21T09:54:17;99850.00;;;37.36;26.07
60258;BME280;46115;44.484;11.314;2022-08-21T09:58:20;99860.00;;;36.78;26.99
60258;BME280;46115;44.484;11.314;2022-08-21T10:02:27;99851.31;;;36.97;26.64
60258;BME280;46115;44.484;11.314;2022-08-21T10:06:30;99859.25;;;35.18;28.47
60258;BME280;46115;44.484;11.314;2022-08-21T10:10:36;99845.50;;;36.12;27.88
60258;BME280;46115;44.484;11.314;2022-08-21T10:14:47;99856.75;;;35.89;27.05
60258;BME280;46115;44.484;11.314;2022-08-21T10:19:02;99848.44;;;35.84;27.57
60258;BME280;46115;44.484;11.314;2022-08-21T10:23:20;99847.81;;;35.60;28.19
60258;BME280;46115;44.484;11.314;2022-08-21T10:27:33;99843.28;;;35.15;29.49
60258;BME280;46115;44.484;11.314;2022-08-21T10:31:46;99837.88;;;34.87;29.10
60258;BME280;46115;44.484;11.314;2022-08-21T10:35:59;99830.72;;;34.86;29.41
60258;BME280;46115;44.484;11.314;2022-08-21T10:40:15;99816.00;;;33.78;29.96
60258;BME280;46115;44.484;11.314;2022-08-21T10:44:28;99819.88;;;34.05;30.07
60258;BME280;46115;44.484;11.314;2022-08-21T10:48:35;99818.66;;;34.13;29.54
60258;BME280;46115;44.484;11.314;2022-08-21T10:57:19;99806.16;;;32.23;32.98
60258;BME280;46115;44.484;11.314;2022-08-21T11:01:29;99798.91;;;33.01;32.82
60258;BME280;46115;44.484;11.314;2022-08-21T11:05:39;99795.53;;;33.57;31.50
60258;BME280;46115;44.484;11.314;2022-08-21T11:09:45;99796.25;;;32.94;32.59
60258;BME280;46115;44.484;11.314;2022-08-21T11:13:55;99798.16;;;33.29;30.09
60258;BME280;46115;44.484;11.314;2022-08-21T11:18:04;99788.03;;;31.26;32.29
60258;BME280;46115;44.484;11.314;2022-08-21T11:22:15;99789.56;;;32.67;31.25
60258;BME280;46115;44.484;11.314;2022-08-21T11:26:28;99781.81;;;32.64;31.73
60258;BME280;46115;44.484;11.314;2022-08-21T11:30:40;99775.81;;;31.65;32.25
60258;BME280;46115;44.484;11.314;2022-08-21T11:34:54;99772.88;;;32.56;30.89
60258;BME280;46115;44.484;11.314;2022-08-21T11:39:06;99766.53;;;32.44;30.58
60258;BME280;46115;44.484;11.314;2022-08-21T11:43:24;99767.97;;;32.47;31.88
60258;BME280;46115;44.484;11.314;2022-08-21T11:47:35;99759.50;;;32.78;31.36
60258;BME280;46115;44.484;11.314;2022-08-21T11:51:46;99750.22;;;31.96;31.88
60258;BME280;46115;44.484;11.314;2022-08-21T11:55:55;99745.47;;;32.03;31.79
60258;BME280;46115;44.484;11.314;2022-08-21T12:00:06;99749.78;;;32.52;31.05
60258;BME280;46115;44.484;11.314;2022-08-21T12:04:30;99749.03;;;32.04;31.03
60258;BME280;46115;44.484;11.314;2022-08-21T12:08:36;99734.13;;;31.70;31.65
60258;BME280;46115;44.484;11.314;2022-08-21T12:12:40;99729.53;;;32.00;31.35
60258;BME280;46115;44.484;11.314;2022-08-21T12:16:46;99724.91;;;32.31;31.49
60258;BME280;46115;44.484;11.314;2022-08-21T12:21:19;99700.84;;;31.61;32.36
60258;BME280;46115;44.484;11.314;2022-08-21T12:25:22;99702.97;;;31.89;32.59
60258;BME280;46115;44.484;11.314;2022-08-21T12:29:27;99711.66;;;31.86;31.57
60258;BME280;46115;44.484;11.314;2022-08-21T12:33:36;99697.38;;;31.84;31.51
60258;BME280;46115;44.484;11.314;2022-08-21T12:37:43;99709.31;;;31.53;31.68
60258;BME280;46115;44.484;11.314;2022-08-21T12:41:49;99707.28;;;31.67;31.19
60258;BME280;46115;44.484;11.314;2022-08-21T12:45:52;99704.78;;;31.65;30.37
60258;BME280;46115;44.484;11.314;2022-08-21T12:49:58;99710.94;;;31.42;30.89
60258;BME280;46115;44.484;11.314;2022-08-21T12:54:03;99699.13;;;31.30;31.49
60258;BME280;46115;44.484;11.314;2022-08-21T12:58:06;99693.47;;;31.61;31.71
60258;BME280;46115;44.484;11.314;2022-08-21T13:02:15;99700.91;;;32.03;31.80
60258;BME280;46115;44.484;11.314;2022-08-21T13:06:20;99693.53;;;32.03;30.79
60258;BME280;46115;44.484;11.314;2022-08-21T13:10:28;99686.94;;;31.62;31.20
60258;BME280;46115;44.484;11.314;2022-08-21T13:14:34;99678.53;;;31.46;31.66
60258;BME280;46115;44.484;11.314;2022-08-21T13:18:52;99679.66;;;31.75;31.13
60258;BME280;46115;44.484;11.314;2022-08-21T13:22:56;99678.31;;;31.95;31.04
60258;BME280;46115;44.484;11.314;2022-08-21T13:27:00;99656.91;;;31.44;31.66
60258;BME280;46115;44.484;11.314;2022-08-21T13:31:06;99656.59;;;31.52;31.83
60258;BME280;46115;44.484;11.314;2022-08-21T13:35:13;99660.63;;;32.10;31.21
60258;BME280;46115;44.484;11.314;2022-08-21T13:39:18;99648.47;;;31.94;31.52
60258;BME280;46115;44.484;11.314;2022-08-21T13:43:25;99652.34;;;31.86;31.32
60258;BME280;46115;44.484;11.314;2022-08-21T13:47:29;99644.91;;;31.93;31.58
60258;BME280;46115;44.484;11.314;2022-08-21T13:51:32;99616.00;;;31.86;31.32
60258;BME280;46115;44.484;11.314;2022-08-21T13:55:39;99640.41;;;31.99;31.08
60258;BME280;46115;44.484;11.314;2022-08-21T13:59:42;99634.81;;;32.06;31.91
60258;BME280;46115;44.484;11.314;2022-08-21T14:03:47;99636.25;;;31.97;32.20
60258;BME280;46115;44.484;11.314;2022-08-21T14:07:58;99630.56;;;32.10;31.64
60258;BME280;46115;44.484;11.314;2022-08-21T14:12:13;99627.78;;;32.28;30.98
60258;BME280;46115;44.484;11.314;2022-08-21T14:16:19;99627.00;;;32.21;31.74
60258;BME280;46115;44.484;11.314;2022-08-21T14:20:30;99622.66;;;31.90;31.52
60258;BME280;46115;44.484;11.314;2022-08-21T14:24:39;99619.97;;;32.13;30.75
60258;BME280;46115;44.484;11.314;2022-08-21T14:28:43;99621.22;;;31.87;31.70
60258;BME280;46115;44.484;11.314;2022-08-21T14:32:46;99608.44;;;31.70;31.69
60258;BME280;46115;44.484;11.314;2022-08-21T14:36:49;99602.25;;;31.62;31.63
60258;BME280;46115;44.484;11.314;2022-08-21T14:40:54;99606.56;;;31.70;31.25
60258;BME280;46115;44.484;11.314;2022-08-21T14:45:01;99599.47;;;31.81;32.41
60258;BME280;46115;44.484;11.314;2022-08-21T14:49:04;99602.78;;;31.41;33.19
60258;BME280;46115;44.484;11.314;2022-08-21T14:53:07;99599.47;;;31.51;32.17
60258;BME280;46115;44.484;11.314;2022-08-21T14:57:10;99607.56;;;31.09;32.67
60258;BME280;46115;44.484;11.314;2022-08-21T15:01:16;99608.03;;;31.06;32.96
60258;BME280;46115;44.484;11.314;2022-08-21T15:05:19;99605.31;;;31.06;33.61
60258;BME280;46115;44.484;11.314;2022-08-21T15:09:22;99607.09;;;31.12;32.76
60258;BME280;46115;44.484;11.314;2022-08-21T15:13:24;99602.41;;;31.19;32.86
60258;BME280;46115;44.484;11.314;2022-08-21T15:17:28;99597.75;;;30.90;32.89
60258;BME280;46115;44.484;11.314;2022-08-21T15:21:31;99587.41;;;31.10;32.88
60258;BME280;46115;44.484;11.314;2022-08-21T15:25:34;99584.16;;;31.01;32.85
60258;BME280;46115;44.484;11.314;2022-08-21T15:29:37;99601.38;;;31.02;32.88
60258;BME280;46115;44.484;11.314;2022-08-21T15:33:41;99598.50;;;30.97;32.79
60258;BME280;46115;44.484;11.314;2022-08-21T15:37:43;99598.25;;;30.98;32.94
60258;BME280;46115;44.484;11.314;2022-08-21T15:41:46;99592.53;;;30.88;32.53
60258;BME280;46115;44.484;11.314;2022-08-21T15:45:49;99591.97;;;30.98;32.27
60258;BME280;46115;44.484;11.314;2022-08-21T15:49:53;99599.00;;;31.06;32.63
60258;BME280;46115;44.484;11.314;2022-08-21T15:53:55;99589.78;;;30.88;33.47
60258;BME280;46115;44.484;11.314;2022-08-21T15:57:58;99580.22;;;30.79;33.63
60258;BME280;46115;44.484;11.314;2022-08-21T16:02:00;99585.16;;;30.89;33.26
60258;BME280;46115;44.484;11.314;2022-08-21T16:06:04;99586.88;;;31.01;33.65
60258;BME280;46115;44.484;11.314;2022-08-21T16:10:07;99583.16;;;31.14;32.87
60258;BME280;46115;44.484;11.314;2022-08-21T16:14:11;99554.97;;;30.84;33.31
60258;BME280;46115;44.484;11.314;2022-08-21T16:18:13;99572.13;;;30.72;33.37
60258;BME280;46115;44.484;11.314;2022-08-21T16:22:17;99544.00;;;30.90;33.24
60258;BME280;46115;44.484;11.314;2022-08-21T16:26:19;99570.47;;;30.90;33.24
60258;BME280;46115;44.484;11.314;2022-08-21T16:30:22;99574.25;;;30.89;32.90
60258;BME280;46115;44.484;11.314;2022-08-21T16:34:25;99562.50;;;30.70;33.27
60258;BME280;46115;44.484;11.314;2022-08-21T16:38:30;99566.06;;;30.70;32.97
60258;BME280;46115;44.484;11.314;2022-08-21T16:42:34;99572.09;;;30.54;33.73
60258;BME280;46115;44.484;11.314;2022-08-21T16:46:38;99557.50;;;30.67;33.47
60258;BME280;46115;44.484;11.314;2022-08-21T16:50:41;99569.78;;;30.76;33.69
60258;BME280;46115;44.484;11.314;2022-08-21T16:54:46;99571.66;;;30.76;33.64
60258;BME280;46115;44.484;11.314;2022-08-21T16:58:50;99567.91;;;30.52;34.20
60258;BME280;46115;44.484;11.314;2022-08-21T17:02:54;99561.09;;;30.24;35.40
60258;BME280;46115;44.484;11.314;2022-08-21T17:06:56;99562.63;;;30.14;35.84
60258;BME280;46115;44.484;11.314;2022-08-21T17:11:01;99571.19;;;30.17;36.30
60258;BME280;46115;44.484;11.314;2022-08-21T17:15:09;99572.97;;;30.05;36.25
60258;BME280;46115;44.484;11.314;2022-08-21T17:19:14;99559.69;;;29.90;36.26
60258;BME280;46115;44.484;11.314;2022-08-21T17:23:17;99588.31;;;29.99;36.18
60258;BME280;46115;44.484;11.314;2022-08-21T17:27:22;99579.84;;;29.83;37.11
60258;BME280;46115;44.484;11.314;2022-08-21T17:31:29;99561.19;;;29.86;37.63
60258;BME280;46115;44.484;11.314;2022-08-21T17:35:31;99572.09;;;29.79;37.91
60258;BME280;46115;44.484;11.314;2022-08-21T17:39:34;99579.81;;;29.58;38.96
60258;BME280;46115;44.484;11.314;2022-08-21T17:43:39;99576.59;;;29.29;40.24
60258;BME280;46115;44.484;11.314;2022-08-21T17:47:42;99577.34;;;29.05;41.27
60258;BME280;46115;44.484;11.314;2022-08-21T17:51:45;99580.69;;;29.07;41.72
60258;BME280;46115;44.484;11.314;2022-08-21T17:55:48;99579.72;;;28.95;42.11
60258;BME280;46115;44.484;11.314;2022-08-21T17:59:52;99584.63;;;28.40;44.08
60258;BME280;46115;44.484;11.314;2022-08-21T18:03:54;99591.31;;;28.44;43.64
60258;BME280;46115;44.484;11.314;2022-08-21T18:07:57;99600.13;;;28.46;43.79
60258;BME280;46115;44.484;11.314;2022-08-21T18:12:00;99581.31;;;28.18;43.67
60258;BME280;46115;44.484;11.314;2022-08-21T18:16:04;99606.16;;;28.08;45.36
60258;BME280;46115;44.484;11.314;2022-08-21T18:20:08;99586.09;;;28.03;44.62
60258;BME280;46115;44.484;11.314;2022-08-21T18:24:10;99616.19;;;28.08;45.01
60258;BME280;46115;44.484;11.314;2022-08-21T18:28:13;99619.13;;;28.00;45.02
60258;BME280;46115;44.484;11.314;2022-08-21T18:32:22;99615.16;;;27.21;48.43
60258;BME280;46115;44.484;11.314;2022-08-21T18:36:26;99621.22;;;27.17;48.62
60258;BME280;46115;44.484;11.314;2022-08-21T18:40:30;99622.47;;;27.21;47.78
60258;BME280;46115;44.484;11.314;2022-08-21T18:44:33;99632.38;;;27.48;47.24
60258;BME280;46115;44.484;11.314;2022-08-21T18:48:37;99626.66;;;27.23;48.87
60258;BME280;46115;44.484;11.314;2022-08-21T18:52:41;99627.50;;;26.55;50.82
60258;BME280;46115;44.484;11.314;2022-08-21T22:06:12;99691.38;;;23.85;61.42
60258;BME280;46115;44.484;11.314;2022-08-21T22:10:26;99694.53;;;23.97;61.15
60258;BME280;46115;44.484;11.314;2022-08-21T22:14:34;99698.50;;;23.78;61.79
60258;BME280;46115;44.484;11.314;2022-08-21T22:18:40;99692.69;;;23.89;61.60
60258;BME280;46115;44.484;11.314;2022-08-21T22:22:45;99656.16;;;23.56;62.01
60258;BME280;46115;44.484;11.314;2022-08-21T22:26:51;99694.78;;;23.79;62.04
60258;BME280;46115;44.484;11.314;2022-08-21T22:31:11;99691.69;;;23.68;62.52
60258;BME280;46115;44.484;11.314;2022-08-21T22:35:16;99691.72;;;23.51;63.52
60258;BME280;46115;44.484;11.314;2022-08-21T22:39:28;99695.44;;;23.50;63.59
60258;BME280;46115;44.484;11.314;2022-08-21T22:43:30;99696.38;;;23.34;64.51
60258;BME280;46115;44.484;11.314;2022-08-21T22:47:36;99683.59;;;23.20;65.15
60258;BME280;46115;44.484;11.314;2022-08-21T22:51:43;99685.00;;;23.08;65.75
60258;BME280;46115;44.484;11.314;2022-08-21T22:55:54;99687.84;;;23.15;66.01
60258;BME280;46115;44.484;11.314;2022-08-21T22:59:59;99683.69;;;23.04;66.44
60258;BME280;46115;44.484;11.314;2022-08-21T23:04:13;99687.25;;;22.96;66.97
60258;BME280;46115;44.484;11.314;2022-08-21T23:08:24;99706.00;;;22.49;68.99
60258;BME280;46115;44.484;11.314;2022-08-21T23:12:33;99716.78;;;23.29;66.29
60258;BME280;46115;44.484;11.314;2022-08-21T23:16:43;99725.06;;;23.67;63.96
60258;BME280;46115;44.484;11.314;2022-08-21T23:21:02;99716.66;;;23.61;64.86
60258;BME280;46115;44.484;11.314;2022-08-21T23:25:23;99710.94;;;23.56;64.27
60258;BME280;46115;44.484;11.314;2022-08-21T23:29:39;99704.81;;;23.31;65.47
60258;BME280;46115;44.484;11.314;2022-08-21T23:33:59;99707.25;;;23.10;66.76
60258;BME280;46115;44.484;11.314;2022-08-21T23:38:09;99705.03;;;23.14;66.90
60258;BME280;46115;44.484;11.314;2022-08-21T23:42:28;99690.63;;;22.98;67.32
60258;BME280;46115;44.484;11.314;2022-08-21T23:46:45;99713.47;;;23.11;67.01
60258;BME280;46115;44.484;11.314;2022-08-21T23:50:57;99718.25;;;22.84;68.13
60258;BME280;46115;44.484;11.314;2022-08-21T23:55:28;99712.00;;;23.00;67.85
60258;BME280;46115;44.484;11.314;2022-08-21T23:59:41;99689.78;;;22.98;67.74
